Whitby, West Virginia
Current Conditions -  °F | °C
As of 2:51 PM on Thursday 27 Nov 2014 (Local Time) from KBKW Reporting Station
Unknown Precip Unknown Precip  
Wind Chill: 18°   Ceiling: 1600
Heat Index: 29°   Visibility: 10mi
Dew Point: 22°   Wind: 15mph
Humidity: 75%   Direction: 280°W
Pressure: 30.11"   Gusts: 22mph
Location:  37.6789°N, 81.2106°W
Report Text: KBKW 271951Z AUTO 28013G19KT 10SM UP OVC016 M02/M06 A3011 RMK AO2 UPB48 SLP225 P0000 T10171056
Loading
Personal Weather Stations






























Interactive Weather Map New forecast layout! Learn more

10-Day Weather Forecast

Advertisements
Track Severe Weather on mobile